Currently 53°F in San Jacinto, California, USA
53°F
53°F / 39°F
calm
0.00"
Thursday, December 14, 2017 9:03 AM PST

San Jacinto, California Weather Summary
Last 36 Hours

Temperature Winds Hourly Humidity Dewpoint
Time Report Norm Report Norm Max Gusts Precip. Rpt. Norm Rpt. Norm Pressure
1,2Thu 09:03 AM  53.0°F  51°F  calm  calm  none  0.00"  24%  64%  16°F  38°F  30.14"
Thu 09:00 AM  52.4°F  50°F  calm  1 mph  none  0.00"  25%  64%  16°F  38°F  30.14"
Thu 08:00 AM  43.6°F  45°F  calm  calm  none  0.00"  35%  74%  16°F  37°F  30.13"
Thu 07:00 AM  40.7°F  42°F  calm  calm  none  0.00"  35%  78%  14°F  36°F  30.11"
Thu 06:00 AM  39.7°F  42°F  calm  1 mph  none  0.00"  37%  79%  14°F  36°F  30.10"
3Thu 05:43 AM  39.1°F  42°F  calm  calm  none  ----  38%  79%  14°F  36°F  30.09"
Thu 05:00 AM  41.0°F  43°F  calm  calm  none  0.00"  36%  78%  15°F  36°F  30.08"
Thu 04:00 AM  44.0°F  43°F  calm  calm  1 mph  0.00"  30%  77%  13°F  36°F  30.06"
Thu 03:00 AM  43.1°F  44°F  calm  calm  none  0.00"  31%  76%  13°F  37°F  30.07"
Thu 02:00 AM  45.1°F  44°F  calm  1 mph  none  0.00"  29%  76%  13°F  37°F  30.07"
Thu 01:00 AM  45.9°F  45°F  calm  1 mph  none  0.00"  29%  74%  14°F  37°F  30.08"
Thu 12:00 AM  50.1°F  46°F  calm  calm  1 mph  0.00"  25%  73%  14°F  38°F  30.08"
Wed 11:00 PM  50.9°F  48°F  calm  1 mph  none  0.00"  23%  70%  13°F  38°F  30.10"
Wed 10:00 PM  53.7°F  49°F  calm  1 mph  none  0.00"  21%  69%  13°F  38°F  30.09"
Wed 09:00 PM  55.1°F  50°F  calm  1 mph  none  0.00"  19%  66%  12°F  39°F  30.08"
Wed 08:00 PM  61.0°F  52°F  calm  1 mph  3 mph  0.00"  15%  63%  11°F  39°F  30.07"
Wed 07:00 PM  61.8°F  54°F  calm  1 mph  2 mph  0.00"  15%  59%  12°F  39°F  30.06"
Wed 06:00 PM  67.2°F  56°F  calm  1 mph  3 mph  0.00"  13%  55%  12°F  39°F  30.06"
Wed 05:00 PM  71.3°F  59°F  2 mph NW  1 mph  3 mph  0.00"  12%  49%  14°F  39°F  30.03"
Wed 04:00 PM  79.2°F  62°F  calm  2 mph  7 mph  0.00"  8%  42%  10°F  38°F  30.03"
Wed 03:00 PM  81.2°F  63°F  calm  2 mph  7 mph  0.00"  6%  40%  5°F  38°F  30.03"
Wed 02:00 PM  80.0°F  63°F  calm  2 mph  none  0.00"  6%  40%  4°F  38°F  30.05"
Wed 01:00 PM  79.2°F  63°F  calm  2 mph  none  0.00"  7%  41%  7°F  38°F  30.06"
Wed 12:00 PM  77.4°F  61°F  calm  1 mph  none  0.00"  7%  44%  6°F  38°F  30.08"
Wed 11:00 AM  72.2°F  59°F  calm  1 mph  none  0.00"  9%  49%  8°F  39°F  30.13"
Wed 10:00 AM  62.1°F  55°F  calm  1 mph  none  0.00"  16%  55%  13°F  39°F  30.16"
Wed 09:00 AM  53.9°F  51°F  calm  calm  none  0.00"  23%  64%  15°F  38°F  30.17"
Wed 08:00 AM  46.7°F  45°F  calm  calm  3 mph  0.00"  26%  74%  12°F  37°F  30.17"
Wed 07:00 AM  41.4°F  43°F  calm  calm  3 mph  0.00"  27%  78%  8°F  36°F  30.16"
Wed 06:00 AM  41.5°F  43°F  calm  1 mph  none  0.00"  30%  79%  11°F  36°F  30.15"
Wed 05:00 AM  42.8°F  43°F  calm  calm  none  0.00"  27%  78%  10°F  37°F  30.14"
Wed 04:00 AM  42.6°F  44°F  calm  calm  1 mph  0.00"  26%  77%  8°F  37°F  30.14"
Wed 03:00 AM  43.7°F  45°F  calm  calm  none  0.00"  25%  76%  8°F  37°F  30.16"
Wed 02:00 AM  44.8°F  45°F  calm  1 mph  none  0.00"  25%  75%  9°F  37°F  30.16"
Wed 01:00 AM  48.3°F  46°F  calm  1 mph  1 mph  0.00"  20%  74%  7°F  38°F  30.16"
Wed 12:00 AM  47.2°F  47°F  calm  1 mph  3 mph  0.00"  22%  72%  8°F  38°F  30.17"
Tue 11:00 PM  49.9°F  48°F  calm  1 mph  1 mph  0.00"  20%  70%  9°F  38°F  30.17"
Tue 10:00 PM  53.4°F  49°F  calm  1 mph  3 mph  0.00"  17%  68%  8°F  39°F  30.18"

  1. Current weather data. No green row appears if the current weather data is also the high or low for the current day.
  2. High temperature for the current day.
  3. Low temperature for the current day.

The San Jacinto, California weather pages are a service of WeatherCurrents. San Jacinto is located in the heart of the San Jacinto Valley, near Hemet, the Soboba Casino, and at the foot of the San Jacinto Mountains.
Copyright ©Thu Dec 14 09:04:20 PST 2017  WeatherCurrents. All rights reserved. - Submit questions and comments - Privacy Policy

This page automatically refreshes every 10 minutes.